Lake Clarke Shores, Florida
Current Conditions -  °F | °C
As of 9:53 AM on Saturday 25 Oct 2014 (Local Time) from KPBI Reporting Station
Scattered Clouds Scattered Clouds  
Wind Chill: 74°   Ceiling: Unl
Heat Index: 74°   Visibility: 10mi
Dew Point: 63°   Wind: 12mph
Humidity: 68%   Direction: 330°NNW
Pressure: 29.92"   Gusts: NA
Location:  26.6662°N, 80.0908°W
Report Text: KPBI 251353Z 33010KT 10SM SCT055 23/17 A2992 RMK AO2 SLP132 T02330172
Loading
Personal Weather Stations






























Interactive Weather Map
Tropical Storm Tracking
New forecast layout! Learn more

10-Day Weather Forecast

Advertisements
Track Severe Weather on mobile